METAR Data
IDs: Format: Raw Decoded Include TAF

Data at: 0549 UTC 15 Nov 2018

METAR for:KEDC (Austin/Executive Arp, TX, US)
Text:KEDC 150535Z AUTO 00000KT 10SM CLR 02/M04 A3037 RMK AO2
Temperature: 2.0°C ( 36°F)
Dewpoint: -4.0°C ( 25°F) [RH = 64%]
Pressure (altimeter):30.37 inches Hg (1028.5 mb)
Winds:calm
Visibility:10 or more sm (16+ km)
Ceiling:at least 12,000 feet AGL
Clouds:sky clear below 12,000 feet AGL
QC Flag:automated observation with no human augmentation